sensor_id;sensor_type;location;lat;lon;timestamp;P1;durP1;ratioP1;P2;durP2;ratioP2
20758;SDS011;10539;53.686;9.158;2022-12-07T00:00:01;12.43;;;5.97;;
20758;SDS011;10539;53.686;9.158;2022-12-07T00:02:28;12.23;;;5.43;;
20758;SDS011;10539;53.686;9.158;2022-12-07T00:04:54;13.60;;;6.10;;
20758;SDS011;10539;53.686;9.158;2022-12-07T00:07:19;10.00;;;5.60;;
20758;SDS011;10539;53.686;9.158;2022-12-07T00:09:45;9.47;;;4.53;;
20758;SDS011;10539;53.686;9.158;2022-12-07T00:12:10;10.97;;;5.07;;
20758;SDS011;10539;53.686;9.158;2022-12-07T00:14:36;10.93;;;3.73;;
20758;SDS011;10539;53.686;9.158;2022-12-07T00:17:02;7.93;;;3.73;;
20758;SDS011;10539;53.686;9.158;2022-12-07T00:19:27;12.93;;;3.77;;
20758;SDS011;10539;53.686;9.158;2022-12-07T00:21:53;12.77;;;4.10;;
20758;SDS011;10539;53.686;9.158;2022-12-07T00:24:18;5.93;;;3.17;;
20758;SDS011;10539;53.686;9.158;2022-12-07T00:26:44;8.70;;;3.83;;
20758;SDS011;10539;53.686;9.158;2022-12-07T00:29:17;9.80;;;3.60;;
20758;SDS011;10539;53.686;9.158;2022-12-07T00:31:44;7.60;;;3.37;;
20758;SDS011;10539;53.686;9.158;2022-12-07T00:34:17;16.30;;;3.40;;
20758;SDS011;10539;53.686;9.158;2022-12-07T00:36:44;11.80;;;3.50;;
20758;SDS011;10539;53.686;9.158;2022-12-07T00:39:11;5.73;;;2.93;;
20758;SDS011;10539;53.686;9.158;2022-12-07T00:41:36;7.17;;;2.80;;
20758;SDS011;10539;53.686;9.158;2022-12-07T00:44:02;6.90;;;2.90;;
20758;SDS011;10539;53.686;9.158;2022-12-07T00:46:28;9.17;;;3.80;;
20758;SDS011;10539;53.686;9.158;2022-12-07T00:48:54;5.50;;;2.70;;
20758;SDS011;10539;53.686;9.158;2022-12-07T00:51:21;9.57;;;2.80;;
20758;SDS011;10539;53.686;9.158;2022-12-07T00:53:48;7.03;;;3.00;;
20758;SDS011;10539;53.686;9.158;2022-12-07T00:56:14;6.50;;;2.73;;
20758;SDS011;10539;53.686;9.158;2022-12-07T00:58:43;6.67;;;2.30;;
20758;SDS011;10539;53.686;9.158;2022-12-07T01:01:09;11.03;;;2.73;;
20758;SDS011;10539;53.686;9.158;2022-12-07T01:03:36;9.20;;;2.57;;
20758;SDS011;10539;53.686;9.158;2022-12-07T01:06:03;10.03;;;2.30;;
20758;SDS011;10539;53.686;9.158;2022-12-07T01:08:29;7.70;;;2.10;;
20758;SDS011;10539;53.686;9.158;2022-12-07T01:10:59;4.73;;;2.33;;
20758;SDS011;10539;53.686;9.158;2022-12-07T01:13:26;8.97;;;1.77;;
20758;SDS011;10539;53.686;9.158;2022-12-07T01:15:55;6.67;;;1.60;;
20758;SDS011;10539;53.686;9.158;2022-12-07T01:18:23;4.63;;;1.47;;
20758;SDS011;10539;53.686;9.158;2022-12-07T01:20:59;5.40;;;1.40;;
20758;SDS011;10539;53.686;9.158;2022-12-07T01:23:30;8.97;;;1.77;;
20758;SDS011;10539;53.686;9.158;2022-12-07T01:25:57;7.17;;;2.33;;
20758;SDS011;10539;53.686;9.158;2022-12-07T01:28:24;5.70;;;1.30;;
20758;SDS011;10539;53.686;9.158;2022-12-07T01:31:00;3.83;;;1.20;;
20758;SDS011;10539;53.686;9.158;2022-12-07T01:33:29;7.47;;;1.40;;
20758;SDS011;10539;53.686;9.158;2022-12-07T01:36:00;4.97;;;1.00;;
20758;SDS011;10539;53.686;9.158;2022-12-07T01:38:43;5.70;;;1.10;;
20758;SDS011;10539;53.686;9.158;2022-12-07T01:41:11;3.40;;;1.10;;
20758;SDS011;10539;53.686;9.158;2022-12-07T01:44:06;3.93;;;0.77;;
20758;SDS011;10539;53.686;9.158;2022-12-07T01:46:38;1.97;;;0.70;;
20758;SDS011;10539;53.686;9.158;2022-12-07T01:49:06;5.67;;;0.90;;
20758;SDS011;10539;53.686;9.158;2022-12-07T01:51:35;8.53;;;1.03;;
20758;SDS011;10539;53.686;9.158;2022-12-07T01:54:03;5.40;;;1.00;;
20758;SDS011;10539;53.686;9.158;2022-12-07T01:56:29;1.97;;;0.80;;
20758;SDS011;10539;53.686;9.158;2022-12-07T01:58:57;4.20;;;0.80;;
20758;SDS011;10539;53.686;9.158;2022-12-07T02:01:25;4.73;;;1.20;;
20758;SDS011;10539;53.686;9.158;2022-12-07T02:03:51;8.23;;;1.37;;
20758;SDS011;10539;53.686;9.158;2022-12-07T02:06:19;5.10;;;1.07;;
20758;SDS011;10539;53.686;9.158;2022-12-07T02:08:48;7.30;;;0.97;;
20758;SDS011;10539;53.686;9.158;2022-12-07T02:11:14;7.90;;;1.00;;
20758;SDS011;10539;53.686;9.158;2022-12-07T02:13:41;12.57;;;1.27;;
20758;SDS011;10539;53.686;9.158;2022-12-07T02:30:00;8.17;;;1.30;;
20758;SDS011;10539;53.686;9.158;2022-12-07T02:32:42;7.27;;;1.40;;
20758;SDS011;10539;53.686;9.158;2022-12-07T02:40:38;2.83;;;1.00;;
20758;SDS011;10539;53.686;9.158;2022-12-07T02:43:28;3.20;;;1.33;;
20758;SDS011;10539;53.686;9.158;2022-12-07T02:45:55;3.27;;;1.03;;
20758;SDS011;10539;53.686;9.158;2022-12-07T02:48:26;4.33;;;1.23;;
20758;SDS011;10539;53.686;9.158;2022-12-07T02:50:53;6.20;;;0.90;;
20758;SDS011;10539;53.686;9.158;2022-12-07T02:53:29;3.33;;;1.30;;
20758;SDS011;10539;53.686;9.158;2022-12-07T03:01:44;3.03;;;1.30;;
20758;SDS011;10539;53.686;9.158;2022-12-07T03:10:31;2.70;;;1.10;;
20758;SDS011;10539;53.686;9.158;2022-12-07T03:15:46;2.60;;;1.07;;
20758;SDS011;10539;53.686;9.158;2022-12-07T03:18:28;1.53;;;1.27;;
20758;SDS011;10539;53.686;9.158;2022-12-07T03:21:00;3.07;;;1.13;;
20758;SDS011;10539;53.686;9.158;2022-12-07T03:23:30;3.30;;;1.17;;
20758;SDS011;10539;53.686;9.158;2022-12-07T03:26:00;2.40;;;1.37;;
20758;SDS011;10539;53.686;9.158;2022-12-07T03:28:29;4.47;;;1.37;;
20758;SDS011;10539;53.686;9.158;2022-12-07T03:31:00;2.60;;;1.10;;
20758;SDS011;10539;53.686;9.158;2022-12-07T03:33:36;2.57;;;1.00;;
20758;SDS011;10539;53.686;9.158;2022-12-07T03:36:08;1.60;;;1.00;;
20758;SDS011;10539;53.686;9.158;2022-12-07T03:38:44;3.87;;;1.10;;
20758;SDS011;10539;53.686;9.158;2022-12-07T03:41:20;2.37;;;1.20;;
20758;SDS011;10539;53.686;9.158;2022-12-07T03:43:49;3.83;;;1.30;;
20758;SDS011;10539;53.686;9.158;2022-12-07T03:46:21;3.10;;;1.10;;
20758;SDS011;10539;53.686;9.158;2022-12-07T03:49:16;6.17;;;1.20;;
20758;SDS011;10539;53.686;9.158;2022-12-07T03:54:19;4.37;;;1.30;;
20758;SDS011;10539;53.686;9.158;2022-12-07T03:56:50;2.73;;;1.13;;
20758;SDS011;10539;53.686;9.158;2022-12-07T03:59:17;3.67;;;1.10;;
20758;SDS011;10539;53.686;9.158;2022-12-07T04:01:44;2.60;;;1.00;;
20758;SDS011;10539;53.686;9.158;2022-12-07T04:04:16;1.90;;;1.20;;
20758;SDS011;10539;53.686;9.158;2022-12-07T04:06:42;2.30;;;1.53;;
20758;SDS011;10539;53.686;9.158;2022-12-07T04:09:08;3.67;;;1.30;;
20758;SDS011;10539;53.686;9.158;2022-12-07T04:11:34;2.80;;;1.50;;
20758;SDS011;10539;53.686;9.158;2022-12-07T04:13:59;5.43;;;1.40;;
20758;SDS011;10539;53.686;9.158;2022-12-07T04:16:44;6.00;;;1.43;;
20758;SDS011;10539;53.686;9.158;2022-12-07T04:19:18;2.13;;;1.33;;
20758;SDS011;10539;53.686;9.158;2022-12-07T04:21:45;2.57;;;1.27;;
20758;SDS011;10539;53.686;9.158;2022-12-07T04:24:13;4.17;;;1.43;;
20758;SDS011;10539;53.686;9.158;2022-12-07T04:26:40;8.47;;;1.80;;
20758;SDS011;10539;53.686;9.158;2022-12-07T04:29:06;4.03;;;1.67;;
20758;SDS011;10539;53.686;9.158;2022-12-07T04:31:32;3.80;;;1.37;;
20758;SDS011;10539;53.686;9.158;2022-12-07T04:33:58;6.93;;;1.80;;
20758;SDS011;10539;53.686;9.158;2022-12-07T04:36:24;9.60;;;1.67;;
20758;SDS011;10539;53.686;9.158;2022-12-07T04:38:49;4.87;;;1.33;;
20758;SDS011;10539;53.686;9.158;2022-12-07T04:41:17;6.13;;;1.60;;
20758;SDS011;10539;53.686;9.158;2022-12-07T04:43:43;3.37;;;1.33;;
20758;SDS011;10539;53.686;9.158;2022-12-07T04:46:09;5.50;;;1.50;;
20758;SDS011;10539;53.686;9.158;2022-12-07T04:48:34;4.90;;;1.10;;
20758;SDS011;10539;53.686;9.158;2022-12-07T04:51:01;5.17;;;1.97;;
20758;SDS011;10539;53.686;9.158;2022-12-07T04:53:28;8.73;;;1.53;;
20758;SDS011;10539;53.686;9.158;2022-12-07T04:55:54;5.77;;;1.17;;
20758;SDS011;10539;53.686;9.158;2022-12-07T04:58:19;4.70;;;1.10;;
20758;SDS011;10539;53.686;9.158;2022-12-07T05:00:45;3.27;;;0.93;;
20758;SDS011;10539;53.686;9.158;2022-12-07T05:03:11;3.33;;;1.03;;
20758;SDS011;10539;53.686;9.158;2022-12-07T05:05:39;2.73;;;1.17;;
20758;SDS011;10539;53.686;9.158;2022-12-07T05:08:06;6.57;;;1.17;;
20758;SDS011;10539;53.686;9.158;2022-12-07T05:10:31;2.23;;;0.63;;
20758;SDS011;10539;53.686;9.158;2022-12-07T05:12:57;2.90;;;1.13;;
20758;SDS011;10539;53.686;9.158;2022-12-07T05:15:22;5.07;;;0.80;;
20758;SDS011;10539;53.686;9.158;2022-12-07T05:17:48;3.77;;;1.00;;
20758;SDS011;10539;53.686;9.158;2022-12-07T05:20:14;5.60;;;0.83;;
20758;SDS011;10539;53.686;9.158;2022-12-07T05:22:40;8.27;;;1.20;;
20758;SDS011;10539;53.686;9.158;2022-12-07T05:25:05;3.10;;;0.80;;
20758;SDS011;10539;53.686;9.158;2022-12-07T05:27:32;4.27;;;0.93;;
20758;SDS011;10539;53.686;9.158;2022-12-07T05:29:57;6.60;;;1.13;;
20758;SDS011;10539;53.686;9.158;2022-12-07T05:32:23;2.87;;;0.77;;
20758;SDS011;10539;53.686;9.158;2022-12-07T05:34:49;1.83;;;0.83;;
20758;SDS011;10539;53.686;9.158;2022-12-07T05:37:14;5.20;;;1.00;;
20758;SDS011;10539;53.686;9.158;2022-12-07T05:39:40;2.83;;;0.60;;
20758;SDS011;10539;53.686;9.158;2022-12-07T05:42:08;3.47;;;0.90;;
20758;SDS011;10539;53.686;9.158;2022-12-07T05:44:39;2.37;;;1.20;;
20758;SDS011;10539;53.686;9.158;2022-12-07T05:47:09;1.80;;;0.83;;
20758;SDS011;10539;53.686;9.158;2022-12-07T05:49:36;3.13;;;0.67;;
20758;SDS011;10539;53.686;9.158;2022-12-07T05:52:02;7.50;;;1.00;;
20758;SDS011;10539;53.686;9.158;2022-12-07T05:54:28;2.37;;;0.80;;
20758;SDS011;10539;53.686;9.158;2022-12-07T05:56:54;1.40;;;0.80;;
20758;SDS011;10539;53.686;9.158;2022-12-07T05:59:20;1.87;;;0.50;;
20758;SDS011;10539;53.686;9.158;2022-12-07T06:01:57;0.93;;;0.50;;
20758;SDS011;10539;53.686;9.158;2022-12-07T06:04:25;2.80;;;1.50;;
20758;SDS011;10539;53.686;9.158;2022-12-07T06:06:53;3.43;;;0.67;;
20758;SDS011;10539;53.686;9.158;2022-12-07T06:09:20;2.97;;;0.70;;
20758;SDS011;10539;53.686;9.158;2022-12-07T06:11:47;1.27;;;0.60;;
20758;SDS011;10539;53.686;9.158;2022-12-07T06:14:32;0.60;;;0.40;;
20758;SDS011;10539;53.686;9.158;2022-12-07T06:16:58;1.30;;;0.50;;
20758;SDS011;10539;53.686;9.158;2022-12-07T06:19:24;1.60;;;0.60;;
20758;SDS011;10539;53.686;9.158;2022-12-07T06:21:50;2.20;;;0.83;;
20758;SDS011;10539;53.686;9.158;2022-12-07T06:24:16;3.50;;;0.70;;
20758;SDS011;10539;53.686;9.158;2022-12-07T06:26:42;0.73;;;0.40;;
20758;SDS011;10539;53.686;9.158;2022-12-07T06:29:08;6.37;;;0.97;;
20758;SDS011;10539;53.686;9.158;2022-12-07T06:31:35;2.60;;;0.70;;
20758;SDS011;10539;53.686;9.158;2022-12-07T06:34:03;3.03;;;0.50;;
20758;SDS011;10539;53.686;9.158;2022-12-07T06:36:30;4.13;;;0.80;;
20758;SDS011;10539;53.686;9.158;2022-12-07T06:38:56;4.20;;;0.60;;
20758;SDS011;10539;53.686;9.158;2022-12-07T06:41:22;5.10;;;0.50;;
20758;SDS011;10539;53.686;9.158;2022-12-07T06:43:47;1.63;;;0.60;;
20758;SDS011;10539;53.686;9.158;2022-12-07T06:46:14;3.20;;;0.50;;
20758;SDS011;10539;53.686;9.158;2022-12-07T06:48:41;4.20;;;0.57;;
20758;SDS011;10539;53.686;9.158;2022-12-07T06:51:08;2.53;;;0.40;;
20758;SDS011;10539;53.686;9.158;2022-12-07T06:53:34;3.07;;;0.50;;
20758;SDS011;10539;53.686;9.158;2022-12-07T06:56:00;1.30;;;0.50;;
20758;SDS011;10539;53.686;9.158;2022-12-07T06:58:26;4.20;;;0.93;;
20758;SDS011;10539;53.686;9.158;2022-12-07T07:00:52;6.30;;;1.00;;
20758;SDS011;10539;53.686;9.158;2022-12-07T07:03:18;1.73;;;0.40;;
20758;SDS011;10539;53.686;9.158;2022-12-07T07:05:44;2.93;;;0.40;;
20758;SDS011;10539;53.686;9.158;2022-12-07T07:08:11;1.73;;;0.40;;
20758;SDS011;10539;53.686;9.158;2022-12-07T07:10:37;2.40;;;0.40;;
20758;SDS011;10539;53.686;9.158;2022-12-07T07:13:04;7.23;;;0.77;;
20758;SDS011;10539;53.686;9.158;2022-12-07T07:15:31;1.37;;;0.60;;
20758;SDS011;10539;53.686;9.158;2022-12-07T07:17:57;7.07;;;0.60;;
20758;SDS011;10539;53.686;9.158;2022-12-07T07:20:23;4.13;;;0.60;;
20758;SDS011;10539;53.686;9.158;2022-12-07T07:22:49;8.90;;;0.80;;
20758;SDS011;10539;53.686;9.158;2022-12-07T07:25:15;1.63;;;0.47;;
20758;SDS011;10539;53.686;9.158;2022-12-07T07:27:41;3.13;;;0.60;;
20758;SDS011;10539;53.686;9.158;2022-12-07T07:30:07;4.07;;;0.90;;
20758;SDS011;10539;53.686;9.158;2022-12-07T07:32:33;2.40;;;0.40;;
20758;SDS011;10539;53.686;9.158;2022-12-07T07:34:59;4.80;;;0.53;;
20758;SDS011;10539;53.686;9.158;2022-12-07T07:37:25;6.17;;;0.80;;
20758;SDS011;10539;53.686;9.158;2022-12-07T07:39:51;6.57;;;0.90;;
20758;SDS011;10539;53.686;9.158;2022-12-07T07:42:17;5.03;;;0.90;;
20758;SDS011;10539;53.686;9.158;2022-12-07T07:44:42;5.67;;;0.73;;
20758;SDS011;10539;53.686;9.158;2022-12-07T07:47:08;6.13;;;1.07;;
20758;SDS011;10539;53.686;9.158;2022-12-07T07:49:34;3.50;;;0.67;;
20758;SDS011;10539;53.686;9.158;2022-12-07T07:51:59;7.17;;;0.97;;
20758;SDS011;10539;53.686;9.158;2022-12-07T07:54:25;4.33;;;1.07;;
20758;SDS011;10539;53.686;9.158;2022-12-07T07:56:51;7.93;;;1.13;;
20758;SDS011;10539;53.686;9.158;2022-12-07T07:59:18;3.83;;;0.67;;
20758;SDS011;10539;53.686;9.158;2022-12-07T08:01:43;6.23;;;0.93;;
20758;SDS011;10539;53.686;9.158;2022-12-07T08:04:09;6.93;;;0.90;;
20758;SDS011;10539;53.686;9.158;2022-12-07T08:06:35;4.27;;;0.60;;
20758;SDS011;10539;53.686;9.158;2022-12-07T08:09:01;6.57;;;1.00;;
20758;SDS011;10539;53.686;9.158;2022-12-07T08:11:27;4.60;;;1.07;;
20758;SDS011;10539;53.686;9.158;2022-12-07T08:13:53;3.57;;;0.77;;
20758;SDS011;10539;53.686;9.158;2022-12-07T08:16:19;7.83;;;0.90;;
20758;SDS011;10539;53.686;9.158;2022-12-07T08:18:45;5.73;;;0.83;;
20758;SDS011;10539;53.686;9.158;2022-12-07T08:21:12;7.77;;;1.10;;
20758;SDS011;10539;53.686;9.158;2022-12-07T08:23:38;3.03;;;0.70;;
20758;SDS011;10539;53.686;9.158;2022-12-07T08:26:05;8.20;;;1.17;;
20758;SDS011;10539;53.686;9.158;2022-12-07T08:28:32;4.17;;;1.07;;
20758;SDS011;10539;53.686;9.158;2022-12-07T08:30:58;4.07;;;0.93;;
20758;SDS011;10539;53.686;9.158;2022-12-07T08:33:25;10.93;;;0.80;;
20758;SDS011;10539;53.686;9.158;2022-12-07T08:35:51;4.87;;;0.90;;
20758;SDS011;10539;53.686;9.158;2022-12-07T08:38:17;6.70;;;0.70;;
20758;SDS011;10539;53.686;9.158;2022-12-07T08:40:43;8.87;;;1.07;;
20758;SDS011;10539;53.686;9.158;2022-12-07T08:43:08;3.03;;;0.57;;
20758;SDS011;10539;53.686;9.158;2022-12-07T08:45:34;3.50;;;1.07;;
20758;SDS011;10539;53.686;9.158;2022-12-07T08:48:05;3.50;;;0.60;;
20758;SDS011;10539;53.686;9.158;2022-12-07T08:50:35;2.93;;;0.63;;
20758;SDS011;10539;53.686;9.158;2022-12-07T08:53:02;4.83;;;1.30;;
20758;SDS011;10539;53.686;9.158;2022-12-07T08:55:29;3.03;;;0.60;;
20758;SDS011;10539;53.686;9.158;2022-12-07T08:57:57;3.40;;;0.80;;
20758;SDS011;10539;53.686;9.158;2022-12-07T09:00:23;0.97;;;0.47;;
20758;SDS011;10539;53.686;9.158;2022-12-07T09:02:49;4.37;;;0.60;;
20758;SDS011;10539;53.686;9.158;2022-12-07T09:05:15;3.03;;;0.53;;
20758;SDS011;10539;53.686;9.158;2022-12-07T09:07:41;2.87;;;0.40;;
20758;SDS011;10539;53.686;9.158;2022-12-07T09:10:10;2.27;;;0.57;;
20758;SDS011;10539;53.686;9.158;2022-12-07T09:12:36;3.63;;;0.43;;
20758;SDS011;10539;53.686;9.158;2022-12-07T09:15:02;5.43;;;0.50;;
20758;SDS011;10539;53.686;9.158;2022-12-07T09:17:31;3.47;;;0.40;;
20758;SDS011;10539;53.686;9.158;2022-12-07T09:19:57;2.30;;;0.30;;
20758;SDS011;10539;53.686;9.158;2022-12-07T09:22:23;2.50;;;0.40;;
20758;SDS011;10539;53.686;9.158;2022-12-07T09:24:49;2.73;;;0.40;;
20758;SDS011;10539;53.686;9.158;2022-12-07T09:27:14;4.20;;;0.60;;
20758;SDS011;10539;53.686;9.158;2022-12-07T09:29:42;2.27;;;0.40;;
20758;SDS011;10539;53.686;9.158;2022-12-07T09:32:08;5.03;;;0.57;;
20758;SDS011;10539;53.686;9.158;2022-12-07T09:34:33;5.23;;;0.77;;
20758;SDS011;10539;53.686;9.158;2022-12-07T09:37:00;4.57;;;0.80;;
20758;SDS011;10539;53.686;9.158;2022-12-07T09:39:26;7.37;;;1.10;;
20758;SDS011;10539;53.686;9.158;2022-12-07T09:41:52;5.10;;;0.80;;
20758;SDS011;10539;53.686;9.158;2022-12-07T09:44:23;1.67;;;0.50;;
20758;SDS011;10539;53.686;9.158;2022-12-07T09:46:49;4.40;;;0.73;;
20758;SDS011;10539;53.686;9.158;2022-12-07T09:49:18;2.90;;;0.70;;
20758;SDS011;10539;53.686;9.158;2022-12-07T09:51:46;10.73;;;0.93;;
20758;SDS011;10539;53.686;9.158;2022-12-07T09:54:12;5.93;;;1.00;;
20758;SDS011;10539;53.686;9.158;2022-12-07T09:56:40;6.90;;;1.30;;
20758;SDS011;10539;53.686;9.158;2022-12-07T09:59:10;9.20;;;1.17;;
20758;SDS011;10539;53.686;9.158;2022-12-07T10:01:41;6.50;;;0.77;;
20758;SDS011;10539;53.686;9.158;2022-12-07T10:04:18;3.43;;;1.00;;
20758;SDS011;10539;53.686;9.158;2022-12-07T10:06:46;4.27;;;1.33;;
20758;SDS011;10539;53.686;9.158;2022-12-07T10:09:13;5.53;;;0.90;;
20758;SDS011;10539;53.686;9.158;2022-12-07T10:14:29;5.87;;;0.77;;
20758;SDS011;10539;53.686;9.158;2022-12-07T10:16:56;5.00;;;0.90;;
20758;SDS011;10539;53.686;9.158;2022-12-07T10:19:26;3.67;;;0.90;;
20758;SDS011;10539;53.686;9.158;2022-12-07T10:22:15;7.37;;;1.10;;
20758;SDS011;10539;53.686;9.158;2022-12-07T10:24:42;8.23;;;1.00;;
20758;SDS011;10539;53.686;9.158;2022-12-07T10:27:30;8.63;;;0.80;;
20758;SDS011;10539;53.686;9.158;2022-12-07T10:29:56;4.43;;;1.07;;
20758;SDS011;10539;53.686;9.158;2022-12-07T10:32:27;6.43;;;1.07;;
20758;SDS011;10539;53.686;9.158;2022-12-07T10:35:18;9.40;;;1.13;;
20758;SDS011;10539;53.686;9.158;2022-12-07T10:37:46;6.40;;;1.13;;
20758;SDS011;10539;53.686;9.158;2022-12-07T10:40:34;13.33;;;1.50;;
20758;SDS011;10539;53.686;9.158;2022-12-07T10:43:00;6.03;;;0.90;;
20758;SDS011;10539;53.686;9.158;2022-12-07T10:45:26;7.53;;;0.97;;
20758;SDS011;10539;53.686;9.158;2022-12-07T10:50:47;6.80;;;0.80;;
20758;SDS011;10539;53.686;9.158;2022-12-07T10:53:48;10.43;;;1.10;;
20758;SDS011;10539;53.686;9.158;2022-12-07T11:01:46;12.93;;;1.40;;
20758;SDS011;10539;53.686;9.158;2022-12-07T11:10:02;6.17;;;0.87;;
20758;SDS011;10539;53.686;9.158;2022-12-07T11:17:53;4.87;;;1.10;;
20758;SDS011;10539;53.686;9.158;2022-12-07T11:28:50;14.20;;;1.37;;
20758;SDS011;10539;53.686;9.158;2022-12-07T11:39:10;11.90;;;1.13;;
20758;SDS011;10539;53.686;9.158;2022-12-07T11:41:41;8.80;;;0.80;;
20758;SDS011;10539;53.686;9.158;2022-12-07T11:44:22;8.83;;;0.93;;
20758;SDS011;10539;53.686;9.158;2022-12-07T11:46:58;6.20;;;1.07;;
20758;SDS011;10539;53.686;9.158;2022-12-07T11:49:43;9.53;;;1.17;;
20758;SDS011;10539;53.686;9.158;2022-12-07T11:52:25;9.00;;;1.30;;
20758;SDS011;10539;53.686;9.158;2022-12-07T11:55:14;6.43;;;0.97;;
20758;SDS011;10539;53.686;9.158;2022-12-07T11:58:23;6.87;;;1.00;;
20758;SDS011;10539;53.686;9.158;2022-12-07T12:03:58;7.60;;;1.70;;
20758;SDS011;10539;53.686;9.158;2022-12-07T12:06:35;11.53;;;1.17;;
20758;SDS011;10539;53.686;9.158;2022-12-07T12:17:24;5.50;;;1.33;;
20758;SDS011;10539;53.686;9.158;2022-12-07T12:20:32;5.40;;;0.90;;
20758;SDS011;10539;53.686;9.158;2022-12-07T12:23:24;4.87;;;0.83;;
20758;SDS011;10539;53.686;9.158;2022-12-07T12:25:59;7.97;;;1.07;;
20758;SDS011;10539;53.686;9.158;2022-12-07T12:28:29;13.20;;;1.50;;
20758;SDS011;10539;53.686;9.158;2022-12-07T12:31:13;7.23;;;1.10;;
20758;SDS011;10539;53.686;9.158;2022-12-07T12:33:42;11.07;;;1.13;;
20758;SDS011;10539;53.686;9.158;2022-12-07T12:36:26;7.67;;;1.17;;
20758;SDS011;10539;53.686;9.158;2022-12-07T12:39:16;13.40;;;1.30;;
20758;SDS011;10539;53.686;9.158;2022-12-07T12:51:53;6.50;;;1.00;;
20758;SDS011;10539;53.686;9.158;2022-12-07T12:54:59;3.80;;;0.50;;
20758;SDS011;10539;53.686;9.158;2022-12-07T12:57:48;5.93;;;0.87;;
20758;SDS011;10539;53.686;9.158;2022-12-07T13:00:45;11.57;;;1.13;;
20758;SDS011;10539;53.686;9.158;2022-12-07T13:03:26;3.43;;;0.60;;
20758;SDS011;10539;53.686;9.158;2022-12-07T13:08:52;4.23;;;1.00;;
20758;SDS011;10539;53.686;9.158;2022-12-07T13:24:57;6.33;;;0.80;;
20758;SDS011;10539;53.686;9.158;2022-12-07T13:27:24;7.53;;;1.00;;
20758;SDS011;10539;53.686;9.158;2022-12-07T13:29:52;11.30;;;1.33;;
20758;SDS011;10539;53.686;9.158;2022-12-07T13:32:24;3.20;;;0.80;;
20758;SDS011;10539;53.686;9.158;2022-12-07T13:34:55;5.00;;;0.97;;
20758;SDS011;10539;53.686;9.158;2022-12-07T13:37:27;7.30;;;1.20;;
20758;SDS011;10539;53.686;9.158;2022-12-07T13:42:34;4.07;;;1.00;;
20758;SDS011;10539;53.686;9.158;2022-12-07T13:45:01;6.87;;;0.90;;
20758;SDS011;10539;53.686;9.158;2022-12-07T13:47:48;5.50;;;0.90;;
20758;SDS011;10539;53.686;9.158;2022-12-07T13:50:28;12.27;;;1.00;;
20758;SDS011;10539;53.686;9.158;2022-12-07T13:52:56;10.83;;;1.17;;
20758;SDS011;10539;53.686;9.158;2022-12-07T13:55:22;7.83;;;1.00;;
20758;SDS011;10539;53.686;9.158;2022-12-07T13:57:49;3.37;;;0.77;;
20758;SDS011;10539;53.686;9.158;2022-12-07T14:00:24;7.47;;;0.73;;
20758;SDS011;10539;53.686;9.158;2022-12-07T14:02:56;6.90;;;0.70;;
20758;SDS011;10539;53.686;9.158;2022-12-07T14:05:33;8.60;;;1.00;;
20758;SDS011;10539;53.686;9.158;2022-12-07T14:10:33;5.83;;;0.83;;
20758;SDS011;10539;53.686;9.158;2022-12-07T14:13:01;5.60;;;0.83;;
20758;SDS011;10539;53.686;9.158;2022-12-07T14:15:30;3.93;;;0.57;;
20758;SDS011;10539;53.686;9.158;2022-12-07T14:17:58;3.50;;;0.73;;
20758;SDS011;10539;53.686;9.158;2022-12-07T14:20:38;5.37;;;0.70;;
20758;SDS011;10539;53.686;9.158;2022-12-07T14:23:05;4.10;;;0.80;;
20758;SDS011;10539;53.686;9.158;2022-12-07T14:25:47;9.10;;;1.03;;
20758;SDS011;10539;53.686;9.158;2022-12-07T14:28:28;5.77;;;0.87;;
20758;SDS011;10539;53.686;9.158;2022-12-07T14:30:54;5.97;;;0.90;;
20758;SDS011;10539;53.686;9.158;2022-12-07T14:33:20;3.80;;;0.90;;
20758;SDS011;10539;53.686;9.158;2022-12-07T14:35:47;6.73;;;0.70;;
20758;SDS011;10539;53.686;9.158;2022-12-07T14:38:12;4.53;;;0.73;;
20758;SDS011;10539;53.686;9.158;2022-12-07T14:40:39;2.70;;;0.87;;
20758;SDS011;10539;53.686;9.158;2022-12-07T14:43:06;7.77;;;0.77;;
20758;SDS011;10539;53.686;9.158;2022-12-07T14:45:35;3.00;;;0.67;;
20758;SDS011;10539;53.686;9.158;2022-12-07T14:48:00;7.57;;;0.90;;
20758;SDS011;10539;53.686;9.158;2022-12-07T14:50:26;6.23;;;0.80;;
20758;SDS011;10539;53.686;9.158;2022-12-07T14:52:56;3.60;;;0.83;;
20758;SDS011;10539;53.686;9.158;2022-12-07T14:55:26;2.57;;;0.70;;
20758;SDS011;10539;53.686;9.158;2022-12-07T14:57:53;5.67;;;1.60;;
20758;SDS011;10539;53.686;9.158;2022-12-07T15:00:20;8.47;;;1.63;;
20758;SDS011;10539;53.686;9.158;2022-12-07T15:02:48;4.37;;;1.33;;
20758;SDS011;10539;53.686;9.158;2022-12-07T15:05:14;7.77;;;2.57;;
20758;SDS011;10539;53.686;9.158;2022-12-07T15:07:40;8.57;;;2.37;;
20758;SDS011;10539;53.686;9.158;2022-12-07T15:10:06;8.17;;;2.03;;
20758;SDS011;10539;53.686;9.158;2022-12-07T15:12:41;6.60;;;1.50;;
20758;SDS011;10539;53.686;9.158;2022-12-07T15:15:07;6.53;;;1.40;;
20758;SDS011;10539;53.686;9.158;2022-12-07T15:17:33;6.03;;;1.33;;
20758;SDS011;10539;53.686;9.158;2022-12-07T15:19:59;6.53;;;1.33;;
20758;SDS011;10539;53.686;9.158;2022-12-07T15:22:24;9.07;;;1.80;;
20758;SDS011;10539;53.686;9.158;2022-12-07T15:24:50;6.87;;;2.03;;
20758;SDS011;10539;53.686;9.158;2022-12-07T15:27:16;7.63;;;2.17;;
20758;SDS011;10539;53.686;9.158;2022-12-07T15:29:42;10.10;;;2.30;;
20758;SDS011;10539;53.686;9.158;2022-12-07T15:32:07;7.40;;;1.80;;
20758;SDS011;10539;53.686;9.158;2022-12-07T15:34:33;11.80;;;2.40;;
20758;SDS011;10539;53.686;9.158;2022-12-07T15:36:59;15.37;;;3.73;;
20758;SDS011;10539;53.686;9.158;2022-12-07T15:39:24;13.13;;;2.80;;
20758;SDS011;10539;53.686;9.158;2022-12-07T15:41:50;8.97;;;1.87;;
20758;SDS011;10539;53.686;9.158;2022-12-07T15:44:16;9.03;;;1.80;;
20758;SDS011;10539;53.686;9.158;2022-12-07T15:47:00;8.77;;;1.80;;
20758;SDS011;10539;53.686;9.158;2022-12-07T15:49:26;11.03;;;2.30;;
20758;SDS011;10539;53.686;9.158;2022-12-07T15:51:52;7.77;;;1.90;;
20758;SDS011;10539;53.686;9.158;2022-12-07T15:54:20;10.40;;;2.10;;
20758;SDS011;10539;53.686;9.158;2022-12-07T15:56:50;9.97;;;1.70;;
20758;SDS011;10539;53.686;9.158;2022-12-07T15:59:16;4.30;;;1.03;;
20758;SDS011;10539;53.686;9.158;2022-12-07T16:01:42;9.27;;;1.20;;
20758;SDS011;10539;53.686;9.158;2022-12-07T16:04:08;6.20;;;0.90;;
20758;SDS011;10539;53.686;9.158;2022-12-07T16:06:33;5.23;;;1.00;;
20758;SDS011;10539;53.686;9.158;2022-12-07T16:08:59;6.83;;;0.93;;
20758;SDS011;10539;53.686;9.158;2022-12-07T16:11:26;5.47;;;0.80;;
20758;SDS011;10539;53.686;9.158;2022-12-07T16:13:52;6.50;;;0.80;;
20758;SDS011;10539;53.686;9.158;2022-12-07T16:16:18;6.20;;;0.90;;
20758;SDS011;10539;53.686;9.158;2022-12-07T16:18:45;5.40;;;0.87;;
20758;SDS011;10539;53.686;9.158;2022-12-07T16:21:12;3.70;;;0.83;;
20758;SDS011;10539;53.686;9.158;2022-12-07T16:23:38;6.30;;;1.37;;
20758;SDS011;10539;53.686;9.158;2022-12-07T16:26:05;10.57;;;1.30;;
20758;SDS011;10539;53.686;9.158;2022-12-07T16:28:36;3.30;;;1.07;;
20758;SDS011;10539;53.686;9.158;2022-12-07T16:31:21;7.03;;;1.10;;
20758;SDS011;10539;53.686;9.158;2022-12-07T16:33:50;4.30;;;0.90;;
20758;SDS011;10539;53.686;9.158;2022-12-07T16:36:18;4.50;;;1.13;;
20758;SDS011;10539;53.686;9.158;2022-12-07T16:38:47;6.07;;;1.10;;
20758;SDS011;10539;53.686;9.158;2022-12-07T16:41:13;4.43;;;1.00;;
20758;SDS011;10539;53.686;9.158;2022-12-07T16:43:39;6.03;;;0.90;;
20758;SDS011;10539;53.686;9.158;2022-12-07T16:46:05;8.87;;;1.07;;
20758;SDS011;10539;53.686;9.158;2022-12-07T16:48:31;5.50;;;1.00;;
20758;SDS011;10539;53.686;9.158;2022-12-07T16:51:02;4.83;;;0.83;;
20758;SDS011;10539;53.686;9.158;2022-12-07T16:53:33;6.90;;;0.90;;
20758;SDS011;10539;53.686;9.158;2022-12-07T16:56:00;4.33;;;1.00;;